Meteoalarm - Portugal e Ilhas:

Avisos Meteorológicos para Portugal e Ilhas


Visite-nos no Facebook:

Visite-nos no Facebook


Madeira Webcams:


Grupo MeteoRAM Facebook:

Junte-se ao melhor e mais completo grupo de Meteorologia da Região Autónoma da Madeira



Situação meteorológica que não inspira cuidado.    Sem avisos

Weather Underground Histórico da Estação

Diário Resumo para junho 25, 2018 Unidades:  Métrico    Inglês   Ambos
« Anterior Dia
Seguinte Dia »
Diário Semanal Mensal Anual Personalizado
  Atualmente: Alto: Baixo: Média:
Temperatura: 17.8 °C -17.8 °C 17.8 °C 18.2 °C
Ponto de orvalho: 15.6 °C -17.8 °C 15.6 °C 16.1 °C
Humidade: 87 % Humidity % 85 % 86 %
Velocidade do Vento: 1.1 km/h 0 km/h 0 km/h 1.3 km/h
Rajada de vento: 7.2 km/h 0 km/h - -
Vento:North - - SSW
Pressão Atmosférica: 1017.5 hPa 0 hPa 1017.5 hPa -
Precipitação: 0 mm      
Historical Graphs
 
 
Dados Tabulares para junho 25, 2018
Hora Temperatura Ponto de orvalho Pressão Atmosférica Vento Velocidade do Vento Rajada de vento Humidade Taxa de Precipitação (Por hora)
-17.8 °C -17.8 °C 0 hPa Calm     Humidity % 0 mm
00:04 20.3 °C 17.7 °C 1018.8 hPa North 1.1 km/h 3.5 km/h 85 % 0 mm
00:09 20.2 °C 17.6 °C 1018.8 hPa North 1.1 km/h 6.1 km/h 85 % 0 mm
00:14 20.1 °C 17.5 °C 1018.8 hPa NNW 1.1 km/h 6.1 km/h 85 % 0 mm
00:19 20.1 °C 17.7 °C 1018.8 hPa NNW 2.6 km/h 6.1 km/h 86 % 0 mm
00:24 20 °C 17.6 °C 1018.5 hPa NW 2.6 km/h 6.1 km/h 86 % 0 mm
00:29 19.9 °C 17.5 °C 1018.8 hPa NNW 2.6 km/h 6.1 km/h 86 % 0 mm
00:34 19.8 °C 17.4 °C 1018.8 hPa Calm   6.1 km/h 86 % 0 mm
00:39 19.8 °C 17.6 °C 1018.5 hPa Calm   3.5 km/h 87 % 0 mm
00:44 19.7 °C 17.5 °C 1018.5 hPa NNW 1.1 km/h 3.5 km/h 87 % 0 mm
00:49 19.6 °C 17.4 °C 1018.5 hPa NNE 2.6 km/h 5 km/h 87 % 0 mm
00:54 19.5 °C 17.3 °C 1018.5 hPa Calm   5 km/h 87 % 0 mm
00:59 19.4 °C 17.2 °C 1018.5 hPa Calm   5 km/h 87 % 0 mm
01:04 19.4 °C 17.2 °C 1018.5 hPa Calm   2.6 km/h 87 % 0 mm
01:09 19.3 °C 17.1 °C 1018.5 hPa North 1.1 km/h 2.6 km/h 87 % 0 mm
01:14 19.2 °C 17.2 °C 1018.5 hPa Calm   2.6 km/h 88 % 0 mm
01:19 19.2 °C 17.2 °C 1018.5 hPa Calm   3.5 km/h 88 % 0 mm
01:24 19.1 °C 17.1 °C 1018.5 hPa Calm   3.5 km/h 88 % 0 mm
01:29 19.1 °C 17.1 °C 1018.5 hPa Calm   3.5 km/h 88 % 0 mm
01:34 19 °C 17 °C 1018.5 hPa North 1.1 km/h 5 km/h 88 % 0 mm
01:39 19 °C 17 °C 1018.5 hPa Calm   5 km/h 88 % 0 mm
01:44 18.9 °C 17.1 °C 1018.5 hPa Calm   5 km/h 89 % 0 mm
01:49 18.9 °C 17.1 °C 1018.2 hPa North 1.1 km/h 5 km/h 89 % 0 mm
01:54 18.9 °C 17.1 °C 1018.5 hPa Calm   5 km/h 89 % 0 mm
01:59 18.9 °C 17.1 °C 1018.2 hPa Calm   3.5 km/h 89 % 0 mm
02:04 18.8 °C 16.9 °C 1018.2 hPa Calm   3.5 km/h 89 % 0 mm
02:09 18.8 °C 16.9 °C 1018.2 hPa North 1.1 km/h 3.5 km/h 89 % 0 mm
02:14 18.8 °C 16.9 °C 1018.2 hPa North 2.6 km/h 5 km/h 89 % 0 mm
02:19 18.8 °C 16.9 °C 1018.2 hPa North 1.1 km/h 6.1 km/h 89 % 0 mm
02:24 18.8 °C 16.9 °C 1018.2 hPa North 1.1 km/h 6.1 km/h 89 % 0 mm
02:29 18.9 °C 17.1 °C 1018.2 hPa North 1.1 km/h 6.1 km/h 89 % 0 mm
02:34 18.9 °C 17.1 °C 1018.2 hPa North 2.6 km/h 5 km/h 89 % 0 mm
02:39 18.8 °C 16.8 °C 1018.2 hPa North 2.6 km/h 5 km/h 88 % 0 mm
02:44 18.7 °C 16.7 °C 1018.2 hPa North 2.6 km/h 6.1 km/h 88 % 0 mm
02:49 18.7 °C 16.7 °C 1018.2 hPa North 2.6 km/h 8.7 km/h 88 % 0 mm
02:54 18.7 °C 16.5 °C 1018.2 hPa Calm   8.7 km/h 87 % 0 mm
02:59 18.7 °C 16.5 °C 1017.8 hPa NNE 1.1 km/h 5 km/h 87 % 0 mm
03:04 18.6 °C 16.4 °C 1017.8 hPa Calm   5 km/h 87 % 0 mm
03:09 18.6 °C 16.4 °C 1017.8 hPa NNE 3.5 km/h 6.1 km/h 87 % 0 mm
03:14 18.5 °C 16.3 °C 1017.8 hPa Calm   6.1 km/h 87 % 0 mm
03:19 18.4 °C 16.2 °C 1017.5 hPa NNW 2.6 km/h 6.1 km/h 87 % 0 mm
03:24 18.4 °C 16.2 °C 1017.8 hPa NNW 1.1 km/h 7.2 km/h 87 % 0 mm
03:29 18.3 °C 16.1 °C 1017.8 hPa NNW 1.1 km/h 7.2 km/h 87 % 0 mm
03:34 18.3 °C 15.9 °C 1017.5 hPa North 2.6 km/h 7.2 km/h 86 % 0 mm
03:39 18.2 °C 15.8 °C 1017.5 hPa NNW 1.1 km/h 7.2 km/h 86 % 0 mm
03:44 18.2 °C 15.8 °C 1017.8 hPa North 2.6 km/h 6.1 km/h 86 % 0 mm
03:49 18.2 °C 16 °C 1017.5 hPa North 2.6 km/h 6.1 km/h 87 % 0 mm
03:54 18.2 °C 15.8 °C 1017.5 hPa North 1.1 km/h 5 km/h 86 % 0 mm
03:59 18.1 °C 15.9 °C 1017.5 hPa NNE 2.6 km/h 6.1 km/h 87 % 0 mm
04:04 18 °C 15.8 °C 1017.5 hPa NNE 3.5 km/h 7.2 km/h 87 % 0 mm
04:09 18 °C 15.8 °C 1017.5 hPa North 2.6 km/h 7.2 km/h 87 % 0 mm
04:14 18 °C 15.8 °C 1017.5 hPa North 2.6 km/h 7.2 km/h 87 % 0 mm
04:19 18 °C 15.8 °C 1017.5 hPa North 3.5 km/h 7.2 km/h 87 % 0 mm
04:24 17.9 °C 15.7 °C 1017.5 hPa North 1.1 km/h 7.2 km/h 87 % 0 mm
04:29 17.8 °C 15.6 °C 1017.5 hPa North 2.6 km/h 7.2 km/h 87 % 0 mm
04:34 17.8 °C 15.6 °C 1017.5 hPa North 2.6 km/h 7.2 km/h 87 % 0 mm
04:39 17.8 °C 15.6 °C 1017.5 hPa North 1.1 km/h 7.2 km/h 87 % 0 mm
MeteoMachico
Cumprimentos de Weather Underground - 1.5 mb

Script original por  Jim McMurry - jmcmurry@mwt.net Adaptado para o modelo por  Wim van der Kuil - Leuven-Template.eu

Equipamento que usamos:

Estação Meteorológica
Weatherwise ws-1080

IPCAM
Dericam H502W

Servidor
Digital Ocean

Weatherwise ws-1080

Dericam H502W

Digital Ocean